createdAt,value
2022-08-05T00:01:35.553Z,54.60
2022-08-05T00:04:03.810Z,54.80
2022-08-05T00:06:36.136Z,55.00
2022-08-05T00:09:12.913Z,55.30
2022-08-05T00:11:48.330Z,55.50
2022-08-05T00:14:18.786Z,55.60
2022-08-05T00:16:53.707Z,55.90
2022-08-05T00:19:32.921Z,56.90
2022-08-05T00:22:06.235Z,56.70
2022-08-05T00:24:35.356Z,57.10
2022-08-05T00:27:04.751Z,57.40
2022-08-05T00:29:38.048Z,58.70
2022-08-05T00:32:13.195Z,58.10
2022-08-05T00:35:03.761Z,58.50
2022-08-05T00:37:35.870Z,59.80
2022-08-05T00:40:26.904Z,61.60
2022-08-05T00:42:57.547Z,63.20
2022-08-05T00:45:38.930Z,64.80
2022-08-05T00:48:31.535Z,66.90
2022-08-05T00:51:00.748Z,69.60
2022-08-05T00:53:45.306Z,71.40
2022-08-05T00:56:23.092Z,73.70
2022-08-05T00:58:52.721Z,76.70
2022-08-05T01:01:24.665Z,83.70
2022-08-05T01:04:15.762Z,86.90
2022-08-05T01:06:48.525Z,88.60
2022-08-05T01:09:17.235Z,88.90
2022-08-05T01:11:49.833Z,88.70
2022-08-05T01:14:33.251Z,88.60
2022-08-05T01:17:02.924Z,88.10
2022-08-05T01:20:03.761Z,88.00
2022-08-05T01:22:47.051Z,88.10
2022-08-05T01:25:53.400Z,90.60
2022-08-05T01:28:49.625Z,91.50
2022-08-05T01:31:51.210Z,92.30
2022-08-05T01:34:30.921Z,93.10
2022-08-05T01:37:24.727Z,93.00
2022-08-05T01:39:58.917Z,92.80
2022-08-05T01:42:27.717Z,93.00
2022-08-05T01:45:02.263Z,93.60
2022-08-05T01:47:39.344Z,94.10
2022-08-05T01:50:18.672Z,94.60
2022-08-05T01:53:03.034Z,95.30
2022-08-05T01:55:36.241Z,95.30
2022-08-05T01:58:30.226Z,96.30
2022-08-05T02:00:58.522Z,96.80
2022-08-05T02:03:40.663Z,97.20
2022-08-05T02:06:23.996Z,97.50
2022-08-05T02:08:59.117Z,97.40
2022-08-05T02:11:33.409Z,97.50
2022-08-05T02:14:12.414Z,97.80
2022-08-05T02:16:52.771Z,97.80
2022-08-05T02:19:28.727Z,97.70
2022-08-05T02:22:04.030Z,98.00
2022-08-05T02:24:38.336Z,98.00
2022-08-05T02:27:11.135Z,98.10
2022-08-05T02:30:00.097Z,98.90
2022-08-05T02:32:31.424Z,99.90
2022-08-05T02:35:13.531Z,99.90
2022-08-05T02:37:43.095Z,99.90
2022-08-05T02:40:16.969Z,99.90
2022-08-05T02:42:52.692Z,99.90
2022-08-05T02:45:24.192Z,99.90
2022-08-05T02:48:11.519Z,99.90
2022-08-05T02:50:43.806Z,99.90
2022-08-05T02:53:16.124Z,99.90
2022-08-05T02:55:52.155Z,99.90
2022-08-05T02:58:26.851Z,99.90
2022-08-05T03:00:56.530Z,99.90
2022-08-05T03:03:23.843Z,99.90
2022-08-05T03:06:54.185Z,99.90
2022-08-05T03:08:42.634Z,99.90
2022-08-05T03:11:53.611Z,99.90
2022-08-05T03:14:13.844Z,99.90
2022-08-05T03:16:41.593Z,99.90
2022-08-05T03:19:16.926Z,99.90
2022-08-05T03:21:48.694Z,99.90
2022-08-05T03:24:29.312Z,99.90
2022-08-05T03:26:56.486Z,99.90
2022-08-05T03:29:45.215Z,99.90
2022-08-05T03:32:17.718Z,99.90
2022-08-05T03:34:50.537Z,99.90
2022-08-05T03:37:19.237Z,99.90
2022-08-05T03:39:58.948Z,99.90
2022-08-05T03:42:29.066Z,99.90
2022-08-05T03:44:59.319Z,99.90
2022-08-05T03:47:30.550Z,99.90
2022-08-05T03:50:02.301Z,99.90
2022-08-05T03:52:38.146Z,99.90
2022-08-05T03:56:01.608Z,99.90
2022-08-05T03:58:22.873Z,99.90
2022-08-05T04:00:57.859Z,99.90
2022-08-05T04:03:29.282Z,99.90
2022-08-05T04:05:57.910Z,99.90
2022-08-05T04:08:36.033Z,99.90
2022-08-05T04:11:07.536Z,99.90
2022-08-05T04:13:50.873Z,99.90
2022-08-05T04:16:24.266Z,99.90
2022-08-05T04:18:59.959Z,99.90
2022-08-05T04:22:05.237Z,99.90
2022-08-05T04:24:19.555Z,99.90
2022-08-05T04:26:49.910Z,99.90
2022-08-05T04:29:16.951Z,99.90
2022-08-05T04:31:48.233Z,99.90
2022-08-05T04:34:32.820Z,99.90
2022-08-05T04:37:03.115Z,99.90
2022-08-05T04:39:35.582Z,99.90
2022-08-05T04:42:08.154Z,99.90
2022-08-05T04:44:35.829Z,99.90
2022-08-05T04:47:08.939Z,99.90
2022-08-05T04:50:01.129Z,99.90
2022-08-05T04:52:27.787Z,99.90
2022-08-05T04:54:57.077Z,99.90
2022-08-05T04:57:28.676Z,99.90
2022-08-05T04:59:56.472Z,99.90
2022-08-05T05:02:37.593Z,99.90
2022-08-05T05:05:26.107Z,99.90
2022-08-05T05:08:01.088Z,99.90
2022-08-05T05:10:30.774Z,99.90
2022-08-05T05:13:04.393Z,99.90
2022-08-05T05:15:56.891Z,99.90
2022-08-05T05:18:31.075Z,99.90
2022-08-05T05:21:01.018Z,99.90
2022-08-05T05:23:39.319Z,99.90
2022-08-05T05:26:17.154Z,99.90
2022-08-05T05:28:46.070Z,99.90
2022-08-05T05:31:13.326Z,99.90
2022-08-05T05:33:57.045Z,99.90
2022-08-05T05:36:28.540Z,99.90
2022-08-05T05:38:57.131Z,99.90
2022-08-05T05:41:24.068Z,99.90
2022-08-05T05:43:58.619Z,99.90
2022-08-05T05:46:27.375Z,99.90
2022-08-05T05:48:54.034Z,99.90
2022-08-05T05:51:25.688Z,99.90
2022-08-05T05:53:58.612Z,99.90
2022-08-05T05:56:32.964Z,99.90
2022-08-05T05:59:06.820Z,99.90
2022-08-05T06:01:37.772Z,99.90
2022-08-05T06:04:12.713Z,99.90
2022-08-05T06:06:47.732Z,99.90
2022-08-05T06:09:17.610Z,99.90
2022-08-05T06:12:01.809Z,99.90
2022-08-05T06:14:30.577Z,99.90
2022-08-05T06:16:57.909Z,99.90
2022-08-05T06:19:34.627Z,99.90
2022-08-05T06:22:06.879Z,99.90
2022-08-05T06:24:35.217Z,99.90
2022-08-05T06:27:04.146Z,99.90
2022-08-05T06:29:49.529Z,99.90
2022-08-05T06:32:25.254Z,99.90
2022-08-05T06:34:56.886Z,99.90
2022-08-05T06:37:57.764Z,99.90
2022-08-05T06:40:18.286Z,99.90
2022-08-05T06:42:48.417Z,99.90
2022-08-05T06:45:20.735Z,99.90
2022-08-05T06:48:36.080Z,99.90
2022-08-05T06:50:35.337Z,99.90
2022-08-05T06:53:11.499Z,99.90
2022-08-05T06:55:38.509Z,99.90
2022-08-05T06:58:29.904Z,99.90
2022-08-05T07:01:04.473Z,99.90
2022-08-05T07:03:33.169Z,99.90
2022-08-05T07:06:06.126Z,99.90
2022-08-05T07:08:51.760Z,99.90
2022-08-05T07:11:25.238Z,99.90
2022-08-05T07:14:20.678Z,99.90
2022-08-05T07:18:08.749Z,99.90
2022-08-05T07:22:28.169Z,99.90
2022-08-05T07:24:57.794Z,99.90
2022-08-05T07:27:27.769Z,99.90
2022-08-05T07:30:27.255Z,99.90
2022-08-05T07:32:57.438Z,99.90
2022-08-05T07:36:04.400Z,99.90
2022-08-05T07:38:33.741Z,99.90
2022-08-05T07:41:16.708Z,99.90
2022-08-05T07:43:47.685Z,99.90
2022-08-05T07:46:24.601Z,99.90
2022-08-05T07:49:02.294Z,99.90
2022-08-05T07:51:40.435Z,99.10
2022-08-05T07:54:11.515Z,99.00
2022-08-05T07:57:02.740Z,98.50
2022-08-05T07:59:38.860Z,98.60
2022-08-05T08:02:16.996Z,98.20
2022-08-05T08:04:48.336Z,97.60
2022-08-05T08:07:17.961Z,97.20
2022-08-05T08:09:50.408Z,96.40
2022-08-05T08:12:27.542Z,96.10
2022-08-05T08:15:13.871Z,96.20
2022-08-05T08:17:46.327Z,95.90
2022-08-05T08:20:43.057Z,95.60
2022-08-05T08:23:04.362Z,95.50
2022-08-05T08:26:00.435Z,95.20
2022-08-05T08:28:36.239Z,95.10
2022-08-05T08:31:08.015Z,95.20
2022-08-05T08:33:35.935Z,95.50
2022-08-05T08:38:58.108Z,95.60
2022-08-05T08:41:52.612Z,95.20
2022-08-05T08:45:18.521Z,95.20
2022-08-05T08:47:47.607Z,95.20
2022-08-05T08:50:07.583Z,94.90
2022-08-05T08:52:51.870Z,95.10
2022-08-05T08:56:01.847Z,95.60
2022-08-05T08:58:09.014Z,95.60
2022-08-05T09:00:39.899Z,95.20
2022-08-05T09:03:09.128Z,94.10
2022-08-05T09:05:38.257Z,93.30
2022-08-05T09:08:27.349Z,93.20
2022-08-05T09:10:56.911Z,93.00
2022-08-05T09:13:24.586Z,92.90
2022-08-05T09:16:01.095Z,92.50
2022-08-05T09:18:29.761Z,92.40
2022-08-05T09:20:56.760Z,92.20
2022-08-05T09:23:28.897Z,92.10
2022-08-05T09:26:20.594Z,92.00
2022-08-05T09:28:58.923Z,92.00
2022-08-05T09:32:39.190Z,91.60
2022-08-05T09:34:14.776Z,91.70
2022-08-05T09:36:59.180Z,91.80
2022-08-05T09:39:45.136Z,91.70
2022-08-05T09:42:24.076Z,91.60
2022-08-05T09:44:57.424Z,91.40
2022-08-05T09:47:55.507Z,91.50
2022-08-05T09:50:38.802Z,91.50
2022-08-05T09:53:22.786Z,91.10
2022-08-05T09:56:04.682Z,91.10
2022-08-05T09:58:31.988Z,91.00
2022-08-05T10:01:01.243Z,90.60
2022-08-05T10:03:56.929Z,90.60
2022-08-05T10:06:19.959Z,90.30
2022-08-05T10:08:50.409Z,90.00
2022-08-05T10:11:24.274Z,89.60
2022-08-05T10:13:58.189Z,89.80
2022-08-05T10:16:34.103Z,89.00
2022-08-05T10:19:09.434Z,88.90
2022-08-05T10:21:40.707Z,90.00
2022-08-05T10:24:12.898Z,89.20
2022-08-05T10:26:51.996Z,89.20
2022-08-05T10:30:05.773Z,89.20
2022-08-05T10:33:01.487Z,88.70
2022-08-05T10:35:01.409Z,88.20
2022-08-05T10:37:44.375Z,88.00
2022-08-05T10:40:40.636Z,88.40
2022-08-05T10:43:23.236Z,88.10
2022-08-05T10:46:06.402Z,87.40
2022-08-05T10:48:56.954Z,86.80
2022-08-05T10:51:28.909Z,86.60
2022-08-05T10:54:05.853Z,84.90
2022-08-05T10:56:59.186Z,85.20
2022-08-05T11:00:02.793Z,84.50
2022-08-05T11:02:34.894Z,84.40
2022-08-05T11:05:08.339Z,84.20
2022-08-05T11:08:01.742Z,82.70
2022-08-05T11:10:37.559Z,81.60
2022-08-05T11:13:40.766Z,80.00
2022-08-05T11:16:33.844Z,80.00
2022-08-05T11:20:16.793Z,79.30
2022-08-05T11:22:50.035Z,79.40
2022-08-05T11:26:04.711Z,78.80
2022-08-05T11:28:20.464Z,78.70
2022-08-05T11:30:58.733Z,78.40
2022-08-05T11:33:44.205Z,78.60
2022-08-05T11:36:33.947Z,79.40
2022-08-05T11:39:04.075Z,79.30
2022-08-05T11:41:58.304Z,78.90
2022-08-05T11:44:53.114Z,77.30
2022-08-05T11:47:15.203Z,77.80
2022-08-05T11:49:49.796Z,77.40
2022-08-05T11:52:31.259Z,77.70
2022-08-05T11:55:07.401Z,77.70
2022-08-05T11:57:39.556Z,76.90
2022-08-05T12:00:31.608Z,76.30
2022-08-05T12:03:14.702Z,76.70
2022-08-05T12:05:44.009Z,75.30
2022-08-05T12:08:11.737Z,74.60
2022-08-05T12:10:46.571Z,74.50
2022-08-05T12:13:48.072Z,73.30
2022-08-05T12:16:15.098Z,73.10
2022-08-05T12:18:49.489Z,72.40
2022-08-05T12:21:31.891Z,71.90
2022-08-05T12:24:04.342Z,71.50
2022-08-05T12:26:44.108Z,71.10
2022-08-05T12:29:16.317Z,71.30
2022-08-05T12:31:55.947Z,71.10
2022-08-05T12:34:32.086Z,70.70
2022-08-05T12:37:03.387Z,70.80
2022-08-05T12:39:37.125Z,70.00
2022-08-05T12:42:16.061Z,69.80
2022-08-05T12:44:48.341Z,68.40
2022-08-05T12:47:30.631Z,68.60
2022-08-05T12:50:04.683Z,67.90
2022-08-05T12:52:39.506Z,67.00
2022-08-05T12:55:27.053Z,67.60
2022-08-05T12:58:50.579Z,67.30
2022-08-05T13:02:01.081Z,67.00
2022-08-05T13:03:34.714Z,66.60
2022-08-05T13:06:11.830Z,66.50
2022-08-05T13:08:38.823Z,66.20
2022-08-05T13:11:07.832Z,65.10
2022-08-05T13:14:04.638Z,64.90
2022-08-05T13:16:28.737Z,65.30
2022-08-05T13:18:58.539Z,65.40
2022-08-05T13:21:42.049Z,65.50
2022-08-05T13:24:36.282Z,65.30
2022-08-05T13:27:05.834Z,65.50
2022-08-05T13:29:38.084Z,65.40
2022-08-05T13:32:07.777Z,65.30
2022-08-05T13:34:37.981Z,65.60
2022-08-05T13:37:09.758Z,65.80
2022-08-05T13:40:16.617Z,66.40
2022-08-05T13:42:25.935Z,66.60
2022-08-05T13:44:57.328Z,67.40
2022-08-05T13:47:36.040Z,67.70
2022-08-05T13:50:16.642Z,68.30
2022-08-05T13:52:44.089Z,68.60
2022-08-05T13:55:10.807Z,69.40
2022-08-05T13:57:50.735Z,69.70
2022-08-05T14:00:26.810Z,70.10
2022-08-05T14:02:55.888Z,70.00
2022-08-05T14:05:48.473Z,70.20
2022-08-05T14:08:20.232Z,70.20
2022-08-05T14:10:54.315Z,70.10
2022-08-05T14:13:30.283Z,70.00
2022-08-05T14:16:08.274Z,70.30
2022-08-05T14:18:40.237Z,70.00
2022-08-05T14:22:08.336Z,69.70
2022-08-05T14:24:00.738Z,69.20
2022-08-05T14:26:36.983Z,69.30
2022-08-05T14:29:16.731Z,69.00
2022-08-05T14:32:03.250Z,69.30
2022-08-05T14:34:35.194Z,69.20
2022-08-05T14:37:04.109Z,69.70
2022-08-05T14:39:49.527Z,69.80
2022-08-05T14:42:22.340Z,68.60
2022-08-05T14:44:49.353Z,68.30
2022-08-05T14:47:17.176Z,68.00
2022-08-05T14:50:12.815Z,67.70
2022-08-05T14:52:53.197Z,66.20
2022-08-05T14:55:24.355Z,67.10
2022-08-05T14:57:56.151Z,66.80
2022-08-05T15:00:25.256Z,66.80
2022-08-05T15:02:58.417Z,66.50
2022-08-05T15:05:30.101Z,66.90
2022-08-05T15:08:58.412Z,66.70
2022-08-05T15:11:02.847Z,65.80
2022-08-05T15:13:44.954Z,66.20
2022-08-05T15:16:15.960Z,65.90
2022-08-05T15:18:47.076Z,65.90
2022-08-05T15:21:14.233Z,65.60
2022-08-05T15:23:43.385Z,64.90
2022-08-05T15:26:10.072Z,64.80
2022-08-05T15:28:36.756Z,64.60
2022-08-05T15:31:10.421Z,63.90
2022-08-05T15:34:05.686Z,64.00
2022-08-05T15:36:24.597Z,63.10
2022-08-05T15:40:59.878Z,62.90
2022-08-05T15:41:57.451Z,63.40
2022-08-05T15:44:25.902Z,63.40
2022-08-05T15:46:54.622Z,63.00
2022-08-05T15:49:41.931Z,61.70
2022-08-05T15:52:16.309Z,59.70
2022-08-05T15:54:55.833Z,59.00
2022-08-05T15:57:23.485Z,59.10
2022-08-05T15:59:53.996Z,59.30
2022-08-05T16:02:25.186Z,59.30
2022-08-05T16:04:55.250Z,59.30
2022-08-05T16:07:22.920Z,58.10
2022-08-05T16:09:52.353Z,57.50
2022-08-05T16:12:20.936Z,58.40
2022-08-05T16:14:50.409Z,57.50
2022-08-05T16:17:17.125Z,57.10
2022-08-05T16:20:05.191Z,56.10
2022-08-05T16:22:34.126Z,56.70
2022-08-05T16:25:08.064Z,56.30
2022-08-05T16:28:00.039Z,54.90
2022-08-05T16:30:26.133Z,55.50
2022-08-05T16:32:55.256Z,54.40
2022-08-05T16:35:27.669Z,53.80
2022-08-05T16:38:15.678Z,53.90
2022-08-05T16:40:55.378Z,54.50
2022-08-05T16:43:28.229Z,54.80
2022-08-05T16:46:05.011Z,54.90
2022-08-05T16:48:39.021Z,54.90
2022-08-05T16:51:10.806Z,54.60
2022-08-05T16:54:05.211Z,54.40
2022-08-05T16:56:33.755Z,53.90
2022-08-05T16:59:08.969Z,54.40
2022-08-05T17:01:53.837Z,54.10
2022-08-05T17:04:26.179Z,53.20
2022-08-05T17:06:55.324Z,53.30
2022-08-05T17:09:26.990Z,53.30
2022-08-05T17:11:59.605Z,52.90
2022-08-05T17:14:37.022Z,52.30
2022-08-05T17:17:06.691Z,52.50
2022-08-05T17:19:43.685Z,52.80
2022-08-05T17:22:17.740Z,52.80
2022-08-05T17:24:57.715Z,52.60
2022-08-05T17:27:27.302Z,52.80
2022-08-05T17:30:02.522Z,52.80
2022-08-05T17:32:33.711Z,52.60
2022-08-05T17:35:04.176Z,53.80
2022-08-05T17:37:41.386Z,53.00
2022-08-05T17:40:14.427Z,53.50
2022-08-05T17:42:51.078Z,52.50
2022-08-05T17:45:24.998Z,52.70
2022-08-05T17:47:56.637Z,53.10
2022-08-05T17:50:28.178Z,52.80
2022-08-05T17:52:58.872Z,52.70
2022-08-05T17:55:34.080Z,52.80
2022-08-05T17:58:04.154Z,53.50
2022-08-05T18:00:31.060Z,53.50
2022-08-05T18:02:57.741Z,53.60
2022-08-05T18:05:27.948Z,53.50
2022-08-05T18:07:57.448Z,53.40
2022-08-05T18:10:24.340Z,53.60
2022-08-05T18:12:52.439Z,53.50
2022-08-05T18:15:22.143Z,53.60
2022-08-05T18:17:58.856Z,53.90
2022-08-05T18:20:32.403Z,54.00
2022-08-05T18:23:09.106Z,54.00
2022-08-05T18:25:44.787Z,54.20
2022-08-05T18:28:12.128Z,54.10
2022-08-05T18:30:45.808Z,54.00
2022-08-05T18:33:23.065Z,54.30
2022-08-05T18:36:03.773Z,54.40
2022-08-05T18:38:37.839Z,54.40
2022-08-05T18:41:57.940Z,54.70
2022-08-05T18:43:54.034Z,54.90
2022-08-05T18:46:21.214Z,55.20
2022-08-05T18:48:51.950Z,55.50
2022-08-05T18:52:04.715Z,55.80
2022-08-05T18:54:31.179Z,55.90
2022-08-05T18:57:00.938Z,56.10
2022-08-05T18:59:43.895Z,56.60
2022-08-05T19:02:38.035Z,56.80
2022-08-05T19:06:12.873Z,57.10
2022-08-05T19:07:56.855Z,57.50
2022-08-05T19:10:28.480Z,57.80
2022-08-05T19:12:56.139Z,58.10
2022-08-05T19:15:58.229Z,58.40
2022-08-05T19:18:21.059Z,58.50
2022-08-05T19:20:52.071Z,58.60
2022-08-05T19:24:04.119Z,58.80
2022-08-05T19:26:09.283Z,59.10
2022-08-05T19:28:44.729Z,59.20
2022-08-05T19:31:13.230Z,59.20
2022-08-05T19:33:48.367Z,59.20
2022-08-05T19:36:25.146Z,59.20
2022-08-05T19:39:00.672Z,59.30
2022-08-05T19:41:58.423Z,59.50
2022-08-05T19:44:15.692Z,59.50
2022-08-05T19:46:43.717Z,59.60
2022-08-05T19:49:12.459Z,59.70
2022-08-05T19:52:08.266Z,59.80
2022-08-05T19:54:34.915Z,60.00
2022-08-05T19:57:09.175Z,60.20
2022-08-05T19:59:55.859Z,60.30
2022-08-05T20:02:30.325Z,60.40
2022-08-05T20:04:58.973Z,60.50
2022-08-05T20:07:47.820Z,60.70
2022-08-05T20:10:17.174Z,60.90
2022-08-05T20:12:48.416Z,60.90
2022-08-05T20:15:23.138Z,60.50
2022-08-05T20:18:10.456Z,60.60
2022-08-05T20:20:57.525Z,60.90
2022-08-05T20:23:39.899Z,60.60
2022-08-05T20:26:17.261Z,60.60
2022-08-05T20:28:47.882Z,60.40
2022-08-05T20:31:16.650Z,60.80
2022-08-05T20:33:44.455Z,60.70
2022-08-05T20:36:11.949Z,60.70
2022-08-05T20:38:53.818Z,60.70
2022-08-05T20:41:44.211Z,60.60
2022-08-05T20:44:18.694Z,60.50
2022-08-05T20:46:55.953Z,60.80
2022-08-05T20:49:28.210Z,60.60
2022-08-05T20:51:58.544Z,60.60
2022-08-05T20:54:43.478Z,60.60
2022-08-05T20:57:14.616Z,60.80
2022-08-05T21:00:21.156Z,60.60
2022-08-05T21:02:51.464Z,60.70
2022-08-05T21:05:18.894Z,60.80
2022-08-05T21:07:51.807Z,60.70
2022-08-05T21:10:23.644Z,60.60
2022-08-05T21:13:09.042Z,60.50
2022-08-05T21:15:44.432Z,60.50
2022-08-05T21:18:20.020Z,60.60
2022-08-05T21:20:55.302Z,60.60
2022-08-05T21:23:22.558Z,60.70
2022-08-05T21:25:51.576Z,61.00
2022-08-05T21:28:23.856Z,61.20
2022-08-05T21:30:57.501Z,61.50
2022-08-05T21:33:24.282Z,61.70
2022-08-05T21:36:04.072Z,61.70
2022-08-05T21:38:30.848Z,61.80
2022-08-05T21:40:57.664Z,61.80
2022-08-05T21:43:25.146Z,61.80
2022-08-05T21:45:57.614Z,62.10
2022-08-05T21:48:27.902Z,62.90
2022-08-05T21:50:55.231Z,62.40
2022-08-05T21:53:27.853Z,63.70
2022-08-05T21:56:05.869Z,64.80
2022-08-05T21:58:42.497Z,65.40
2022-08-05T22:01:24.884Z,66.40
2022-08-05T22:03:53.691Z,66.70
2022-08-05T22:06:22.540Z,66.90
2022-08-05T22:08:52.748Z,67.00
2022-08-05T22:11:35.368Z,67.00
2022-08-05T22:14:19.871Z,67.20
2022-08-05T22:16:56.035Z,67.20
2022-08-05T22:20:02.477Z,66.30
2022-08-05T22:22:12.466Z,65.80
2022-08-05T22:25:00.120Z,65.50
2022-08-05T22:28:11.223Z,65.60
2022-08-05T22:30:35.945Z,66.50
2022-08-05T22:33:15.237Z,66.70
2022-08-05T22:35:48.823Z,67.50
2022-08-05T22:38:19.006Z,68.40
2022-08-05T22:40:49.392Z,68.90
2022-08-05T22:43:36.520Z,69.10
2022-08-05T22:46:13.745Z,69.20
2022-08-05T22:48:50.253Z,69.30
2022-08-05T22:51:22.951Z,69.20
2022-08-05T22:53:56.579Z,68.80
2022-08-05T22:56:30.678Z,67.80
2022-08-05T22:59:03.228Z,65.30
2022-08-05T23:02:03.931Z,64.70
2022-08-05T23:04:34.774Z,65.30
2022-08-05T23:07:01.829Z,65.40
2022-08-05T23:09:57.759Z,65.70
2022-08-05T23:12:17.682Z,66.50
2022-08-05T23:14:46.810Z,67.80
2022-08-05T23:17:34.803Z,68.00
2022-08-05T23:20:06.578Z,68.50
2022-08-05T23:22:43.981Z,69.00
2022-08-05T23:25:17.573Z,68.60
2022-08-05T23:28:03.362Z,67.50
2022-08-05T23:30:40.648Z,67.00
2022-08-05T23:33:16.486Z,67.30
2022-08-05T23:35:55.900Z,69.00
2022-08-05T23:38:26.134Z,69.40
2022-08-05T23:40:53.578Z,70.10
2022-08-05T23:43:25.747Z,70.40
2022-08-05T23:46:20.579Z,70.40
2022-08-05T23:48:59.817Z,70.30
2022-08-05T23:51:53.335Z,70.20
2022-08-05T23:54:29.945Z,70.00
2022-08-05T23:57:04.141Z,69.90
